Aviation Digital Data Service (ADDS)

Output produced by METARs form (1120 UTC 21 April 2018)
found at http://aviationweather.gov/adds/metars/
 
KBFD 210925Z 2109/2206 VRB03KT 5SM BR SCT025 
     FM211300 33007KT P6SM BKN250